Time,TemperatureF,DewpointF,PressureIn,WindDirection,WindDirectionDegrees,WindSpeedMPH,WindSpeedGustMPH,Humidity,HourlyPrecipIn,Conditions,Clouds,dailyrainin,SolarRadiationWatts/m^2,SoftwareType,DateUTC
2013-11-20 00:21:00,61.0,44.0,29.87,ENE,68,1.0,2.0,54,-99.99,,,-99.99,0.000000,,2013-11-20 08:21:00,
2013-11-20 00:42:00,60.0,44.0,29.87,SSE,163,0.0,1.0,55,-99.99,,,-99.99,0.000000,,2013-11-20 08:42:00,
2013-11-20 01:21:00,60.0,44.0,29.85,SSE,156,1.0,3.0,55,-99.99,,,-99.99,0.000000,,2013-11-20 09:21:00,
2013-11-20 01:43:00,60.0,44.0,29.85,NNE,26,0.0,2.0,55,-99.99,,,-99.99,0.000000,,2013-11-20 09:43:00,
2013-11-20 02:23:00,59.0,44.0,29.84,ENE,75,2.0,3.0,56,-99.99,,,-99.99,0.000000,,2013-11-20 10:23:00,
2013-11-20 03:22:00,59.0,45.0,29.83,ESE,103,2.0,4.0,60,-99.99,,,-99.99,0.000000,,2013-11-20 11:22:00,
2013-11-20 03:42:00,58.0,44.0,29.83,South,174,3.0,6.0,60,-99.99,,,-99.99,0.000000,,2013-11-20 11:42:00,
2013-11-20 04:42:00,57.0,44.0,29.82,SSW,201,2.0,4.0,61,-99.99,,,-99.99,0.000000,,2013-11-20 12:42:00,
2013-11-20 05:21:00,59.0,44.0,29.82,South,170,5.0,6.0,57,-99.99,,,-99.99,0.000000,,2013-11-20 13:21:00,
2013-11-20 05:40:00,58.0,43.0,29.82,South,183,2.0,4.0,57,-99.99,,,-99.99,0.000000,,2013-11-20 13:40:00,
2013-11-20 06:22:00,58.0,43.0,29.82,South,183,2.0,4.0,57,-99.99,,,-99.99,0.000000,,2013-11-20 14:22:00,
2013-11-20 06:30:00,58.0,44.0,29.83,SSW,209,3.0,5.0,60,-99.99,,,-99.99,0.000000,,2013-11-20 14:30:00,
2013-11-20 06:32:00,58.0,43.0,29.82,South,183,2.0,4.0,57,-99.99,,,-99.99,0.000000,,2013-11-20 14:32:00,
2013-11-20 07:11:00,58.0,44.0,29.83,SSW,209,3.0,5.0,60,-99.99,,,-99.99,0.000000,,2013-11-20 15:11:00,
2013-11-20 07:21:00,58.0,44.0,29.83,SSW,209,3.0,5.0,60,-99.99,,,-99.99,0.000000,,2013-11-20 15:21:00,
2013-11-20 08:23:00,60.0,44.0,29.85,NNE,12,0.0,2.0,56,-99.99,,,-99.99,100.000000,,2013-11-20 16:23:00,
2013-11-20 09:22:00,63.0,45.0,29.87,NE,50,3.0,5.0,52,-99.99,,,-99.99,200.000000,,2013-11-20 17:22:00,
2013-11-20 09:42:00,65.0,44.0,29.87,ESE,103,2.0,3.0,47,-99.99,,,-99.99,420.000000,,2013-11-20 17:42:00,
2013-11-20 10:21:00,67.0,44.0,29.86,ESE,110,1.0,4.0,43,-99.99,,,-99.99,510.000000,,2013-11-20 18:21:00,
2013-11-20 10:42:00,66.0,44.0,29.86,ESE,116,3.0,6.0,44,-99.99,,,-99.99,540.000000,,2013-11-20 18:42:00,
2013-11-20 11:21:00,68.0,44.0,29.85,East,85,4.0,8.0,42,-99.99,,,-99.99,590.000000,,2013-11-20 19:21:00,
2013-11-20 12:21:00,69.0,44.0,29.82,East,87,3.0,6.0,41,-99.99,,,-99.99,600.000000,,2013-11-20 20:21:00,
2013-11-20 13:11:00,70.0,43.0,29.80,North,356,5.0,10.0,38,-99.99,,,-99.99,570.000000,,2013-11-20 21:11:00,
2013-11-20 13:21:00,70.0,43.0,29.80,North,351,5.0,8.0,38,-99.99,,,-99.99,560.000000,,2013-11-20 21:21:00,
2013-11-20 14:23:00,70.0,44.0,29.79,North,349,6.0,10.0,39,-99.99,,,-99.99,430.000000,,2013-11-20 22:23:00,
2013-11-20 14:42:00,70.0,44.0,29.79,NNW,348,4.0,8.0,38,-99.99,,,-99.99,390.000000,,2013-11-20 22:42:00,
2013-11-20 15:21:00,70.0,44.0,29.79,North,349,7.0,11.0,39,-99.99,,,-99.99,300.000000,,2013-11-20 23:21:00,
2013-11-20 16:11:00,68.0,44.0,29.79,North,359,4.0,8.0,42,-99.99,,,-99.99,50.000000,,2013-11-21 00:11:00,
2013-11-20 16:21:00,68.0,44.0,29.79,North,359,4.0,8.0,42,-99.99,,,-99.99,50.000000,,2013-11-21 00:21:00,
2013-11-20 16:42:00,67.0,45.0,29.80,North,0,4.0,9.0,46,-99.99,,,-99.99,20.000000,,2013-11-21 00:42:00,
2013-11-20 17:11:00,65.0,46.0,29.80,NE,36,3.0,5.0,49,-99.99,,,-99.99,0.000000,,2013-11-21 01:11:00,
2013-11-20 17:21:00,65.0,46.0,29.80,NE,54,4.0,7.0,50,-99.99,,,-99.99,0.000000,,2013-11-21 01:21:00,
2013-11-20 17:42:00,65.0,46.0,29.81,North,10,3.0,6.0,50,-99.99,,,-99.99,0.000000,,2013-11-21 01:42:00,
2013-11-20 18:21:00,64.0,46.0,29.82,NNE,19,2.0,4.0,51,-99.99,,,-99.99,0.000000,,2013-11-21 02:21:00,
2013-11-20 20:23:00,63.0,46.0,29.82,NW,324,2.0,5.0,54,-99.99,,,-99.99,0.000000,,2013-11-21 04:23:00,
2013-11-20 20:43:00,62.0,46.0,29.82,East,88,2.0,4.0,56,-99.99,,,-99.99,0.000000,,2013-11-21 04:43:00,
2013-11-20 21:22:00,61.0,46.0,29.82,SE,138,3.0,6.0,59,-99.99,,,-99.99,0.000000,,2013-11-21 05:22:00,
2013-11-20 21:42:00,65.0,45.0,29.82,SSW,206,10.0,27.0,49,-99.99,,,-99.99,0.000000,,2013-11-21 05:42:00,
2013-11-20 22:10:00,61.0,46.0,29.83,NE,34,4.0,7.0,58,-99.99,,,-99.99,0.000000,,2013-11-21 06:10:00,
2013-11-20 22:12:00,66.0,44.0,29.82,South,178,11.0,21.0,45,-99.99,,,-99.99,0.000000,,2013-11-21 06:12:00,
2013-11-20 22:22:00,66.0,44.0,29.82,South,178,11.0,21.0,45,-99.99,,,-99.99,0.000000,,2013-11-21 06:22:00,
2013-11-20 22:43:00,61.0,46.0,29.83,NE,34,4.0,7.0,58,-99.99,,,-99.99,0.000000,,2013-11-21 06:43:00,
2013-11-20 22:52:00,61.0,46.0,29.83,NE,34,4.0,7.0,58,-99.99,,,-99.99,0.000000,,2013-11-21 06:52:00,
2013-11-20 23:02:00,61.0,46.0,29.83,NE,34,4.0,7.0,58,-99.99,,,-99.99,0.000000,,2013-11-21 07:02:00,
2013-11-20 23:42:00,60.0,47.0,29.82,North,10,0.0,2.0,62,-99.99,,,-99.99,0.000000,,2013-11-21 07:42:00,